This is the latest recevied weather packets stored in our database for station/object DL5MAC-13. If no packets are shown the sender has not sent any weather packets the latest 1 day(s).
| Time | Temp. | Humidity | Pressure | Rain* | Wind** | Luminosity | Snow |
|---|---|---|---|---|---|---|---|
| 1778054446 | 19.44° C | 60% | 1009.6 hPa | 0 mm | - | 482 W/m² | - |
| 1778053872 | 17.78° C | 61% | 1009.8 hPa | 0 mm | - | 392 W/m² | - |
| 1778053230 | 17.78° C | 63% | 1010 hPa | 0 mm | - | 336 W/m² | - |
| 1778052036 | 17.22° C | 64% | 1010.1 hPa | 0 mm | - | 263 W/m² | - |
| 1778051470 | 17.22° C | 64% | 1010.2 hPa | 0 mm | - | 229 W/m² | - |
| 1778050254 | 16.67° C | 67% | 1010 hPa | 0 mm | - | 311 W/m² | - |
| 1778049678 | 15° C | 73% | 1010.3 hPa | 0 mm | - | 256 W/m² | - |
| 1778049038 | 13.89° C | 75% | 1010.2 hPa | 0 mm | - | 154 W/m² | - |
| 1778047822 | 12.78° C | 80% | 1010.3 hPa | 0 mm | - | 106 W/m² | - |
| 1778047246 | 12.22° C | 85% | 1010.3 hPa | 0 mm | - | 144 W/m² | - |
| 1778046030 | 11.11° C | 90% | 1010.2 hPa | 0 mm | - | 62 W/m² | - |
| 1778045454 | 10.56° C | 91% | 1010.4 hPa | 0 mm | - | 42 W/m² | - |
| 1778044238 | 10° C | 93% | 1010.4 hPa | 0 mm | - | 39 W/m² | - |
| 1778043662 | 10° C | 93% | 1010.3 hPa | 0 mm | - | 33 W/m² | - |
| 1778043022 | 9.44° C | 93% | 1010.4 hPa | 0 mm | - | 27 W/m² | - |
| 1778042446 | 9.44° C | 93% | 1010.6 hPa | 0 mm | - | 16 W/m² | - |
| 1778041870 | 9.44° C | 93% | 1010.7 hPa | 0 mm | - | 14 W/m² | - |
| 1778041230 | 9.44° C | 93% | 1010.6 hPa | 0 mm | - | 7 W/m² | - |
| 1778040654 | 9.44° C | 93% | 1010.7 hPa | 0 mm | - | 4 W/m² | - |
| 1778040078 | 9.44° C | 93% | 1010.8 hPa | 0 mm | - | 3 W/m² | - |
| 1778039439 | 9.44° C | 92% | 1010.6 hPa | 0 mm | - | 2 W/m² | - |
| 1778038878 | 9.44° C | 92% | 1010.7 hPa | 0 mm | - | 1 W/m² | - |
| 1778037022 | 9.44° C | 92% | 1011.1 hPa | 0 mm | - | 0 W/m² | - |
| 1778036447 | 9.44° C | 92% | 1011 hPa | 0 mm | - | 0 W/m² | - |
| 1778035822 | 9.44° C | 92% | 1011 hPa | 0 mm | - | 0 W/m² | - |
* Rain latest hour (hover to see other rain measurements)
** Current wind speed in m/s (hover to see current wind gust speed)